sensor_id;sensor_type;location;lat;lon;timestamp;pressure;altitude;pressure_sealevel;temperature;humidity
58385;BME280;44185;47.844;8.966;2024-02-04T00:00:06;61939.72;;;0.44;100.00
58385;BME280;44185;47.844;8.966;2024-02-04T00:02:32;61952.38;;;0.57;100.00
58385;BME280;44185;47.844;8.966;2024-02-04T00:04:57;61961.78;;;0.65;100.00
58385;BME280;44185;47.844;8.966;2024-02-04T00:07:23;61967.47;;;0.73;100.00
58385;BME280;44185;47.844;8.966;2024-02-04T00:09:48;61970.03;;;0.73;100.00
58385;BME280;44185;47.844;8.966;2024-02-04T00:12:15;61968.38;;;0.72;100.00
58385;BME280;44185;47.844;8.966;2024-02-04T00:14:40;61968.38;;;0.72;100.00
58385;BME280;44185;47.844;8.966;2024-02-04T00:17:06;61975.00;;;0.78;100.00
58385;BME280;44185;47.844;8.966;2024-02-04T00:19:31;61966.72;;;0.70;100.00
58385;BME280;44185;47.844;8.966;2024-02-04T00:21:57;61972.25;;;0.75;100.00
58385;BME280;44185;47.844;8.966;2024-02-04T00:24:22;61973.34;;;0.76;100.00
58385;BME280;44185;47.844;8.966;2024-02-04T00:26:47;61979.97;;;0.83;100.00
58385;BME280;44185;47.844;8.966;2024-02-04T00:29:14;61982.72;;;0.85;100.00
58385;BME280;44185;47.844;8.966;2024-02-04T00:31:40;61980.53;;;0.83;100.00
58385;BME280;44185;47.844;8.966;2024-02-04T00:34:05;61982.72;;;0.85;100.00
58385;BME280;44185;47.844;8.966;2024-02-04T00:36:31;61972.25;;;0.75;100.00
58385;BME280;44185;47.844;8.966;2024-02-04T00:38:56;61976.13;;;0.79;100.00
58385;BME280;44185;47.844;8.966;2024-02-04T00:41:21;61984.38;;;0.87;100.00
58385;BME280;44185;47.844;8.966;2024-02-04T00:43:47;61994.88;;;0.97;100.00
58385;BME280;44185;47.844;8.966;2024-02-04T00:46:14;61999.44;;;1.04;100.00
58385;BME280;44185;47.844;8.966;2024-02-04T00:48:39;61997.63;;;0.99;100.00
58385;BME280;44185;47.844;8.966;2024-02-04T00:51:05;61998.19;;;1.00;100.00
58385;BME280;44185;47.844;8.966;2024-02-04T00:53:30;61989.34;;;0.92;100.00
58385;BME280;44185;47.844;8.966;2024-02-04T00:55:56;61992.66;;;0.95;100.00
58385;BME280;44185;47.844;8.966;2024-02-04T00:58:21;61990.47;;;0.93;100.00
58385;BME280;44185;47.844;8.966;2024-02-04T01:00:47;61995.44;;;0.97;100.00
58385;BME280;44185;47.844;8.966;2024-02-04T01:03:13;61998.75;;;1.01;100.00
58385;BME280;44185;47.844;8.966;2024-02-04T01:05:39;62003.16;;;1.05;100.00
58385;BME280;44185;47.844;8.966;2024-02-04T01:08:05;62002.59;;;1.04;100.00
58385;BME280;44185;47.844;8.966;2024-02-04T01:10:30;62013.63;;;1.15;100.00
58385;BME280;44185;47.844;8.966;2024-02-04T01:12:55;62023.03;;;1.24;100.00
58385;BME280;44185;47.844;8.966;2024-02-04T01:15:21;62020.25;;;1.21;100.00
58385;BME280;44185;47.844;8.966;2024-02-04T01:17:46;62011.97;;;1.13;100.00
58385;BME280;44185;47.844;8.966;2024-02-04T01:20:13;62013.63;;;1.15;100.00
58385;BME280;44185;47.844;8.966;2024-02-04T01:22:39;62023.56;;;1.24;100.00
58385;BME280;44185;47.844;8.966;2024-02-04T01:25:05;62019.69;;;1.20;100.00
58385;BME280;44185;47.844;8.966;2024-02-04T01:27:31;62011.97;;;1.13;100.00
58385;BME280;44185;47.844;8.966;2024-02-04T01:29:56;62006.47;;;1.08;100.00
58385;BME280;44185;47.844;8.966;2024-02-04T01:32:22;62002.94;;;1.09;100.00
58385;BME280;44185;47.844;8.966;2024-02-04T01:34:47;62011.44;;;1.13;100.00
58385;BME280;44185;47.844;8.966;2024-02-04T01:37:14;62011.44;;;1.13;100.00
58385;BME280;44185;47.844;8.966;2024-02-04T01:39:39;62012.53;;;1.14;100.00
58385;BME280;44185;47.844;8.966;2024-02-04T01:42:05;62018.63;;;1.19;100.00
58385;BME280;44185;47.844;8.966;2024-02-04T01:44:30;62023.56;;;1.24;100.00
58385;BME280;44185;47.844;8.966;2024-02-04T01:46:56;62032.41;;;1.32;100.00
58385;BME280;44185;47.844;8.966;2024-02-04T01:49:21;62044.00;;;1.43;100.00
58385;BME280;44185;47.844;8.966;2024-02-04T01:51:47;62052.81;;;1.52;100.00
58385;BME280;44185;47.844;8.966;2024-02-04T01:54:14;62056.13;;;1.55;100.00
58385;BME280;44185;47.844;8.966;2024-02-04T01:56:40;62061.09;;;1.60;100.00
58385;BME280;44185;47.844;8.966;2024-02-04T01:59:06;62052.63;;;1.57;100.00
58385;BME280;44185;47.844;8.966;2024-02-04T02:01:33;62057.25;;;1.56;100.00
58385;BME280;44185;47.844;8.966;2024-02-04T02:03:59;62058.91;;;1.58;100.00
58385;BME280;44185;47.844;8.966;2024-02-04T02:06:25;62053.72;;;1.58;100.00
58385;BME280;44185;47.844;8.966;2024-02-04T02:08:52;62054.50;;;1.53;100.00
58385;BME280;44185;47.844;8.966;2024-02-04T02:11:28;62033.50;;;1.33;100.00
58385;BME280;44185;47.844;8.966;2024-02-04T02:14:01;62041.78;;;1.41;100.00
58385;BME280;44185;47.844;8.966;2024-02-04T02:16:30;62037.38;;;1.37;100.00
58385;BME280;44185;47.844;8.966;2024-02-04T02:19:00;62044.53;;;1.44;100.00
58385;BME280;44185;47.844;8.966;2024-02-04T02:21:38;62044.00;;;1.43;100.00
58385;BME280;44185;47.844;8.966;2024-02-04T02:24:11;62054.50;;;1.53;100.00
58385;BME280;44185;47.844;8.966;2024-02-04T02:26:40;62056.13;;;1.55;100.00
58385;BME280;44185;47.844;8.966;2024-02-04T02:29:06;62055.59;;;1.54;100.00
58385;BME280;44185;47.844;8.966;2024-02-04T02:31:31;62051.72;;;1.51;100.00
58385;BME280;44185;47.844;8.966;2024-02-04T02:33:57;62051.19;;;1.50;100.00
58385;BME280;44185;47.844;8.966;2024-02-04T02:36:23;62055.03;;;1.54;100.00
58385;BME280;44185;47.844;8.966;2024-02-04T02:38:55;62067.75;;;1.66;100.00
58385;BME280;44185;47.844;8.966;2024-02-04T02:41:27;62071.06;;;1.69;100.00
58385;BME280;44185;47.844;8.966;2024-02-04T02:43:56;62071.06;;;1.69;100.00
58385;BME280;44185;47.844;8.966;2024-02-04T02:46:23;62080.06;;;1.80;100.00
58385;BME280;44185;47.844;8.966;2024-02-04T02:48:49;62087.25;;;1.87;100.00
58385;BME280;44185;47.844;8.966;2024-02-04T02:51:16;62092.03;;;1.89;100.00
58385;BME280;44185;47.844;8.966;2024-02-04T02:53:41;62073.81;;;1.72;100.00
58385;BME280;44185;47.844;8.966;2024-02-04T02:56:07;62067.34;;;1.68;100.00
58385;BME280;44185;47.844;8.966;2024-02-04T02:58:32;62083.19;;;1.81;100.00
58385;BME280;44185;47.844;8.966;2024-02-04T03:00:59;62095.91;;;1.93;100.00
58385;BME280;44185;47.844;8.966;2024-02-04T03:03:24;62093.16;;;1.90;100.00
58385;BME280;44185;47.844;8.966;2024-02-04T03:05:50;62071.22;;;1.72;100.00
58385;BME280;44185;47.844;8.966;2024-02-04T03:08:15;62076.56;;;1.74;100.00
58385;BME280;44185;47.844;8.966;2024-02-04T03:10:41;62077.13;;;1.75;100.00
58385;BME280;44185;47.844;8.966;2024-02-04T03:13:06;62081.00;;;1.78;100.00
58385;BME280;44185;47.844;8.966;2024-02-04T03:15:32;62083.91;;;1.84;100.00
58385;BME280;44185;47.844;8.966;2024-02-04T03:17:59;62090.94;;;1.88;100.00
58385;BME280;44185;47.844;8.966;2024-02-04T03:20:24;62089.63;;;1.92;100.00
58385;BME280;44185;47.844;8.966;2024-02-04T03:22:50;62097.56;;;1.94;100.00
58385;BME280;44185;47.844;8.966;2024-02-04T03:25:15;62090.00;;;1.89;100.00
58385;BME280;44185;47.844;8.966;2024-02-04T03:27:41;62087.41;;;1.89;100.00
58385;BME280;44185;47.844;8.966;2024-02-04T03:30:07;62098.84;;;1.98;100.00
58385;BME280;44185;47.844;8.966;2024-02-04T03:32:33;62096.63;;;1.96;100.00
58385;BME280;44185;47.844;8.966;2024-02-04T03:35:00;62099.22;;;1.96;100.00
58385;BME280;44185;47.844;8.966;2024-02-04T03:37:25;62100.88;;;1.97;100.00
58385;BME280;44185;47.844;8.966;2024-02-04T03:39:50;62100.88;;;1.97;100.00
58385;BME280;44185;47.844;8.966;2024-02-04T03:42:16;62099.78;;;1.96;100.00
58385;BME280;44185;47.844;8.966;2024-02-04T03:44:41;62105.31;;;2.02;100.00
58385;BME280;44185;47.844;8.966;2024-02-04T03:47:07;62109.88;;;2.08;100.00
58385;BME280;44185;47.844;8.966;2024-02-04T03:49:32;62111.38;;;2.07;100.00
58385;BME280;44185;47.844;8.966;2024-02-04T03:51:59;62115.78;;;2.11;100.00
58385;BME280;44185;47.844;8.966;2024-02-04T03:54:24;62116.34;;;2.12;100.00
58385;BME280;44185;47.844;8.966;2024-02-04T03:56:50;62114.69;;;2.10;100.00
58385;BME280;44185;47.844;8.966;2024-02-04T03:59:15;62113.59;;;2.09;100.00
58385;BME280;44185;47.844;8.966;2024-02-04T04:01:47;62119.81;;;2.18;100.00
58385;BME280;44185;47.844;8.966;2024-02-04T04:04:12;62130.69;;;2.26;100.00
58385;BME280;44185;47.844;8.966;2024-02-04T04:06:38;62124.63;;;2.20;100.00
58385;BME280;44185;47.844;8.966;2024-02-04T04:09:04;62126.28;;;2.21;100.00
58385;BME280;44185;47.844;8.966;2024-02-04T04:11:30;62132.38;;;2.27;100.00
58385;BME280;44185;47.844;8.966;2024-02-04T04:13:55;62131.97;;;2.29;100.00
58385;BME280;44185;47.844;8.966;2024-02-04T04:16:21;62133.09;;;2.30;100.00
58385;BME280;44185;47.844;8.966;2024-02-04T04:18:46;62128.50;;;2.24;100.00
58385;BME280;44185;47.844;8.966;2024-02-04T04:21:12;62122.97;;;2.18;100.00
58385;BME280;44185;47.844;8.966;2024-02-04T04:23:37;62106.41;;;2.03;100.00
58385;BME280;44185;47.844;8.966;2024-02-04T04:26:04;62121.88;;;2.17;100.00
58385;BME280;44185;47.844;8.966;2024-02-04T04:28:30;62118.56;;;2.14;100.00
58385;BME280;44185;47.844;8.966;2024-02-04T04:30:55;62114.13;;;2.10;100.00
58385;BME280;44185;47.844;8.966;2024-02-04T04:33:21;62122.41;;;2.18;100.00
58385;BME280;44185;47.844;8.966;2024-02-04T04:35:46;62122.97;;;2.18;100.00
58385;BME280;44185;47.844;8.966;2024-02-04T04:38:11;62133.66;;;2.31;100.00
58385;BME280;44185;47.844;8.966;2024-02-04T04:40:37;62134.03;;;2.29;100.00
58385;BME280;44185;47.844;8.966;2024-02-04T04:43:04;62145.63;;;2.40;100.00
58385;BME280;44185;47.844;8.966;2024-02-04T04:45:29;62142.88;;;2.37;100.00
58385;BME280;44185;47.844;8.966;2024-02-04T04:47:54;62146.19;;;2.40;100.00
58385;BME280;44185;47.844;8.966;2024-02-04T04:50:21;62143.22;;;2.42;100.00
58385;BME280;44185;47.844;8.966;2024-02-04T04:52:46;62154.47;;;2.48;100.00
58385;BME280;44185;47.844;8.966;2024-02-04T04:55:12;62159.44;;;2.53;100.00
58385;BME280;44185;47.844;8.966;2024-02-04T04:57:37;62158.53;;;2.54;100.00
58385;BME280;44185;47.844;8.966;2024-02-04T05:00:05;62157.22;;;2.51;100.00
58385;BME280;44185;47.844;8.966;2024-02-04T05:02:31;62149.28;;;2.48;100.00
58385;BME280;44185;47.844;8.966;2024-02-04T05:04:56;62149.13;;;2.46;100.00
58385;BME280;44185;47.844;8.966;2024-02-04T05:07:21;62157.78;;;2.51;100.00
58385;BME280;44185;47.844;8.966;2024-02-04T05:09:47;62153.34;;;2.47;100.00
58385;BME280;44185;47.844;8.966;2024-02-04T05:12:12;62151.88;;;2.48;100.00
58385;BME280;44185;47.844;8.966;2024-02-04T05:14:38;62156.13;;;2.50;100.00
58385;BME280;44185;47.844;8.966;2024-02-04T05:17:05;62158.34;;;2.52;100.00
58385;BME280;44185;47.844;8.966;2024-02-04T05:19:30;62140.66;;;2.35;100.00
58385;BME280;44185;47.844;8.966;2024-02-04T05:21:55;62126.28;;;2.21;100.00
58385;BME280;44185;47.844;8.966;2024-02-04T05:24:21;62139.19;;;2.36;100.00
58385;BME280;44185;47.844;8.966;2024-02-04T05:26:46;62144.53;;;2.39;100.00
58385;BME280;44185;47.844;8.966;2024-02-04T05:29:12;62148.38;;;2.42;100.00
58385;BME280;44185;47.844;8.966;2024-02-04T05:31:40;62141.94;;;2.39;100.00
58385;BME280;44185;47.844;8.966;2024-02-04T05:34:07;62153.34;;;2.47;100.00
58385;BME280;44185;47.844;8.966;2024-02-04T05:36:32;62157.22;;;2.51;100.00
58385;BME280;44185;47.844;8.966;2024-02-04T05:39:08;62153.00;;;2.49;100.00
58385;BME280;44185;47.844;8.966;2024-02-04T05:41:34;62156.13;;;2.50;100.00
58385;BME280;44185;47.844;8.966;2024-02-04T05:43:59;62159.44;;;2.53;100.00
58385;BME280;44185;47.844;8.966;2024-02-04T05:46:25;62158.34;;;2.52;100.00
58385;BME280;44185;47.844;8.966;2024-02-04T05:48:50;62154.66;;;2.51;100.00
58385;BME280;44185;47.844;8.966;2024-02-04T05:51:17;62164.97;;;2.58;100.00
58385;BME280;44185;47.844;8.966;2024-02-04T05:53:42;62163.31;;;2.57;100.00
58385;BME280;44185;47.844;8.966;2024-02-04T05:56:08;62160.00;;;2.53;100.00
58385;BME280;44185;47.844;8.966;2024-02-04T05:58:33;62167.19;;;2.60;100.00
58385;BME280;44185;47.844;8.966;2024-02-04T06:00:58;62159.44;;;2.53;100.00
58385;BME280;44185;47.844;8.966;2024-02-04T06:03:24;62157.22;;;2.51;100.00
58385;BME280;44185;47.844;8.966;2024-02-04T06:05:49;62160.56;;;2.54;100.00
58385;BME280;44185;47.844;8.966;2024-02-04T06:08:16;62160.16;;;2.56;100.00
58385;BME280;44185;47.844;8.966;2024-02-04T06:10:42;62158.34;;;2.52;100.00
58385;BME280;44185;47.844;8.966;2024-02-04T06:13:07;62162.00;;;2.60;100.00
58385;BME280;44185;47.844;8.966;2024-02-04T06:15:32;62177.13;;;2.70;100.00
58385;BME280;44185;47.844;8.966;2024-02-04T06:17:58;62173.25;;;2.66;100.00
58385;BME280;44185;47.844;8.966;2024-02-04T06:20:23;62165.53;;;2.59;100.00
58385;BME280;44185;47.844;8.966;2024-02-04T06:22:49;62176.03;;;2.69;100.00
58385;BME280;44185;47.844;8.966;2024-02-04T06:25:16;62181.53;;;2.74;100.00
58385;BME280;44185;47.844;8.966;2024-02-04T06:27:41;62183.22;;;2.75;100.00
58385;BME280;44185;47.844;8.966;2024-02-04T06:30:07;62182.28;;;2.77;100.00
58385;BME280;44185;47.844;8.966;2024-02-04T06:32:32;62178.25;;;2.71;100.00
58385;BME280;44185;47.844;8.966;2024-02-04T06:34:58;62176.56;;;2.69;100.00
58385;BME280;44185;47.844;8.966;2024-02-04T06:37:23;62178.41;;;2.73;100.00
58385;BME280;44185;47.844;8.966;2024-02-04T06:39:48;62181.53;;;2.74;100.00
58385;BME280;44185;47.844;8.966;2024-02-04T06:42:15;62180.47;;;2.73;100.00
58385;BME280;44185;47.844;8.966;2024-02-04T06:44:43;62177.13;;;2.70;100.00
58385;BME280;44185;47.844;8.966;2024-02-04T06:47:08;62182.84;;;2.77;100.00
58385;BME280;44185;47.844;8.966;2024-02-04T06:49:33;62182.66;;;2.75;100.00
58385;BME280;44185;47.844;8.966;2024-02-04T06:51:59;62185.03;;;2.80;100.00
58385;BME280;44185;47.844;8.966;2024-02-04T06:54:24;62188.75;;;2.81;100.00
58385;BME280;44185;47.844;8.966;2024-02-04T06:56:50;62194.28;;;2.86;100.00
58385;BME280;44185;47.844;8.966;2024-02-04T06:59:17;62190.56;;;2.85;100.00
58385;BME280;44185;47.844;8.966;2024-02-04T07:01:43;62189.31;;;2.81;100.00
58385;BME280;44185;47.844;8.966;2024-02-04T07:04:08;62192.94;;;2.89;100.00
58385;BME280;44185;47.844;8.966;2024-02-04T07:06:33;62200.38;;;2.92;100.00
58385;BME280;44185;47.844;8.966;2024-02-04T07:08:59;62203.66;;;2.95;100.00
58385;BME280;44185;47.844;8.966;2024-02-04T07:11:24;62202.19;;;2.96;100.00
58385;BME280;44185;47.844;8.966;2024-02-04T07:13:50;62200.38;;;2.92;100.00
58385;BME280;44185;47.844;8.966;2024-02-04T07:16:17;62194.44;;;2.88;100.00
58385;BME280;44185;47.844;8.966;2024-02-04T07:18:42;62207.53;;;2.98;100.00
58385;BME280;44185;47.844;8.966;2024-02-04T07:21:08;62197.59;;;2.89;100.00
58385;BME280;44185;47.844;8.966;2024-02-04T07:23:33;62205.88;;;2.97;100.00
58385;BME280;44185;47.844;8.966;2024-02-04T07:25:58;62211.97;;;3.03;100.00
58385;BME280;44185;47.844;8.966;2024-02-04T07:28:24;62209.19;;;3.00;100.00
58385;BME280;44185;47.844;8.966;2024-02-04T07:30:55;62212.13;;;3.05;100.00
58385;BME280;44185;47.844;8.966;2024-02-04T07:33:22;62218.03;;;3.08;100.00
58385;BME280;44185;47.844;8.966;2024-02-04T07:35:47;62218.59;;;3.09;100.00
58385;BME280;44185;47.844;8.966;2024-02-04T07:38:13;62218.03;;;3.08;100.00
58385;BME280;44185;47.844;8.966;2024-02-04T07:40:38;62214.34;;;3.07;100.00
58385;BME280;44185;47.844;8.966;2024-02-04T07:43:04;62219.72;;;3.10;100.00
58385;BME280;44185;47.844;8.966;2024-02-04T07:45:29;62225.25;;;3.15;100.00
58385;BME280;44185;47.844;8.966;2024-02-04T07:47:54;62232.97;;;3.22;100.00
58385;BME280;44185;47.844;8.966;2024-02-04T07:50:21;62237.56;;;3.29;100.00
58385;BME280;44185;47.844;8.966;2024-02-04T07:52:47;62235.91;;;3.28;100.00
58385;BME280;44185;47.844;8.966;2024-02-04T07:55:12;62235.75;;;3.25;100.00
58385;BME280;44185;47.844;8.966;2024-02-04T07:57:38;62244.03;;;3.33;100.00
58385;BME280;44185;47.844;8.966;2024-02-04T08:00:05;62249.00;;;3.38;100.00
58385;BME280;44185;47.844;8.966;2024-02-04T08:02:30;62252.91;;;3.41;100.00
58385;BME280;44185;47.844;8.966;2024-02-04T08:04:56;62260.06;;;3.48;100.00
58385;BME280;44185;47.844;8.966;2024-02-04T08:07:23;62265.59;;;3.53;100.00
58385;BME280;44185;47.844;8.966;2024-02-04T08:09:48;62265.41;;;3.58;100.00
58385;BME280;44185;47.844;8.966;2024-02-04T08:12:13;62269.50;;;3.57;100.00
58385;BME280;44185;47.844;8.966;2024-02-04T08:14:39;62272.97;;;3.63;100.00
58385;BME280;44185;47.844;8.966;2024-02-04T08:17:04;62269.66;;;3.60;100.00
58385;BME280;44185;47.844;8.966;2024-02-04T08:19:30;62270.03;;;3.58;100.00
58385;BME280;44185;47.844;8.966;2024-02-04T08:21:55;62275.03;;;3.62;100.00
58385;BME280;44185;47.844;8.966;2024-02-04T08:24:22;62286.66;;;3.73;100.00
58385;BME280;44185;47.844;8.966;2024-02-04T08:26:47;62280.56;;;3.67;100.00
58385;BME280;44185;47.844;8.966;2024-02-04T08:29:13;62286.66;;;3.73;100.00
58385;BME280;44185;47.844;8.966;2024-02-04T08:31:38;62289.59;;;3.78;100.00
58385;BME280;44185;47.844;8.966;2024-02-04T08:34:03;62294.00;;;3.83;100.00
58385;BME280;44185;47.844;8.966;2024-02-04T08:36:29;62295.13;;;3.84;100.00
58385;BME280;44185;47.844;8.966;2024-02-04T08:38:54;62303.25;;;3.89;100.00
58385;BME280;44185;47.844;8.966;2024-02-04T08:41:21;62296.75;;;3.85;100.00
58385;BME280;44185;47.844;8.966;2024-02-04T08:43:47;62293.81;;;3.80;100.00
58385;BME280;44185;47.844;8.966;2024-02-04T08:46:12;62302.13;;;3.88;100.00
58385;BME280;44185;47.844;8.966;2024-02-04T08:48:38;62295.50;;;3.82;100.00
58385;BME280;44185;47.844;8.966;2024-02-04T08:51:04;62299.91;;;3.86;100.00
58385;BME280;44185;47.844;8.966;2024-02-04T08:53:29;62297.31;;;3.86;100.00
58385;BME280;44185;47.844;8.966;2024-02-04T08:55:55;62295.13;;;3.84;100.00
58385;BME280;44185;47.844;8.966;2024-02-04T08:58:22;62299.38;;;3.85;100.00
58385;BME280;44185;47.844;8.966;2024-02-04T09:00:47;62305.44;;;3.91;100.00
58385;BME280;44185;47.844;8.966;2024-02-04T09:03:13;62299.38;;;3.85;100.00
58385;BME280;44185;47.844;8.966;2024-02-04T09:05:38;62303.81;;;3.89;100.00
58385;BME280;44185;47.844;8.966;2024-02-04T09:08:04;62312.09;;;3.97;100.00
58385;BME280;44185;47.844;8.966;2024-02-04T09:10:30;62324.81;;;4.09;100.00
58385;BME280;44185;47.844;8.966;2024-02-04T09:12:55;62329.81;;;4.14;100.00
58385;BME280;44185;47.844;8.966;2024-02-04T09:15:22;62331.66;;;4.18;100.00
58385;BME280;44185;47.844;8.966;2024-02-04T09:17:47;62322.06;;;4.07;100.00
58385;BME280;44185;47.844;8.966;2024-02-04T09:20:13;62328.72;;;4.13;100.00
58385;BME280;44185;47.844;8.966;2024-02-04T09:22:38;62325.00;;;4.12;100.00
58385;BME280;44185;47.844;8.966;2024-02-04T09:25:05;62339.22;;;4.23;100.00
58385;BME280;44185;47.844;8.966;2024-02-04T09:27:30;62337.91;;;4.27;100.00
58385;BME280;44185;47.844;8.966;2024-02-04T09:29:56;62346.44;;;4.30;100.00
58385;BME280;44185;47.844;8.966;2024-02-04T09:32:22;62353.06;;;4.36;100.00
58385;BME280;44185;47.844;8.966;2024-02-04T09:34:48;62350.47;;;4.36;100.00
58385;BME280;44185;47.844;8.966;2024-02-04T09:37:13;62365.03;;;4.52;100.00
58385;BME280;44185;47.844;8.966;2024-02-04T09:39:39;62381.84;;;4.63;100.00
58385;BME280;44185;47.844;8.966;2024-02-04T09:42:04;62389.06;;;4.70;100.00
58385;BME280;44185;47.844;8.966;2024-02-04T09:44:30;62396.81;;;4.77;100.00
58385;BME280;44185;47.844;8.966;2024-02-04T09:46:56;62392.00;;;4.75;100.00
58385;BME280;44185;47.844;8.966;2024-02-04T09:49:23;62375.22;;;4.57;100.00
58385;BME280;44185;47.844;8.966;2024-02-04T09:51:48;62379.66;;;4.61;100.00
58385;BME280;44185;47.844;8.966;2024-02-04T09:54:15;62374.66;;;4.56;100.00
58385;BME280;44185;47.844;8.966;2024-02-04T09:56:41;62381.47;;;4.65;100.00
58385;BME280;44185;47.844;8.966;2024-02-04T09:59:07;62387.41;;;4.69;100.00
58385;BME280;44185;47.844;8.966;2024-02-04T10:01:32;62387.56;;;4.71;100.00
58385;BME280;44185;47.844;8.966;2024-02-04T10:03:58;62374.13;;;4.56;100.00
58385;BME280;44185;47.844;8.966;2024-02-04T10:06:25;62387.56;;;4.71;100.00
58385;BME280;44185;47.844;8.966;2024-02-04T10:08:50;62383.69;;;4.67;100.00
58385;BME280;44185;47.844;8.966;2024-02-04T10:11:16;62404.19;;;4.87;100.00
58385;BME280;44185;47.844;8.966;2024-02-04T10:13:43;62400.28;;;4.83;100.00
58385;BME280;44185;47.844;8.966;2024-02-04T10:16:09;62410.28;;;4.93;100.00
58385;BME280;44185;47.844;8.966;2024-02-04T10:18:35;62415.66;;;4.95;100.00
58385;BME280;44185;47.844;8.966;2024-02-04T10:21:01;62410.28;;;4.93;100.00
58385;BME280;44185;47.844;8.966;2024-02-04T10:23:28;62419.53;;;4.99;100.00
58385;BME280;44185;47.844;8.966;2024-02-04T10:25:58;62432.28;;;5.11;100.00
58385;BME280;44185;47.844;8.966;2024-02-04T10:28:23;62455.31;;;5.38;100.00
58385;BME280;44185;47.844;8.966;2024-02-04T10:30:49;62480.09;;;5.59;100.00
58385;BME280;44185;47.844;8.966;2024-02-04T10:33:15;62486.19;;;5.64;100.00
58385;BME280;44185;47.844;8.966;2024-02-04T10:35:42;62499.50;;;5.77;100.00
58385;BME280;44185;47.844;8.966;2024-02-04T10:38:07;62497.69;;;5.73;100.00
58385;BME280;44185;47.844;8.966;2024-02-04T10:40:34;62499.50;;;5.77;100.00
58385;BME280;44185;47.844;8.966;2024-02-04T10:43:03;62495.59;;;5.73;100.00
58385;BME280;44185;47.844;8.966;2024-02-04T10:45:32;62481.03;;;5.57;100.00
58385;BME280;44185;47.844;8.966;2024-02-04T10:48:01;62479.38;;;5.55;100.00
58385;BME280;44185;47.844;8.966;2024-02-04T10:50:27;62481.38;;;5.62;100.00
58385;BME280;44185;47.844;8.966;2024-02-04T10:52:56;62489.53;;;5.67;100.00
58385;BME280;44185;47.844;8.966;2024-02-04T10:55:27;62536.13;;;6.11;100.00
58385;BME280;44185;47.844;8.966;2024-02-04T10:57:55;62538.16;;;6.11;100.00
58385;BME280;44185;47.844;8.966;2024-02-04T11:00:21;62571.59;;;6.45;100.00
58385;BME280;44185;47.844;8.966;2024-02-04T11:02:47;62572.72;;;6.46;100.00
58385;BME280;44185;47.844;8.966;2024-02-04T11:05:15;62597.69;;;6.70;100.00
58385;BME280;44185;47.844;8.966;2024-02-04T11:07:41;62610.06;;;6.84;100.00
58385;BME280;44185;47.844;8.966;2024-02-04T11:10:07;62623.38;;;6.96;100.00
58385;BME280;44185;47.844;8.966;2024-02-04T11:12:33;62598.25;;;6.70;100.00
58385;BME280;44185;47.844;8.966;2024-02-04T11:15:05;62602.31;;;6.76;100.00
58385;BME280;44185;47.844;8.966;2024-02-04T11:21:07;62639.66;;;7.14;100.00
58385;BME280;44185;47.844;8.966;2024-02-04T11:23:42;62677.47;;;7.42;100.00
58385;BME280;44185;47.844;8.966;2024-02-04T11:26:13;62693.72;;;7.60;100.00
58385;BME280;44185;47.844;8.966;2024-02-04T11:28:41;62706.13;;;7.74;99.60
58385;BME280;44185;47.844;8.966;2024-02-04T11:31:14;62707.06;;;7.73;98.23
58385;BME280;44185;47.844;8.966;2024-02-04T11:33:40;62677.41;;;7.50;100.00
58385;BME280;44185;47.844;8.966;2024-02-04T11:36:06;62693.50;;;7.65;99.81
58385;BME280;44185;47.844;8.966;2024-02-04T11:38:35;62689.63;;;7.61;100.00
58385;BME280;44185;47.844;8.966;2024-02-04T11:41:02;62667.97;;;7.41;100.00
58385;BME280;44185;47.844;8.966;2024-02-04T11:43:28;62637.25;;;7.09;100.00
58385;BME280;44185;47.844;8.966;2024-02-04T11:45:54;62642.09;;;7.11;100.00
58385;BME280;44185;47.844;8.966;2024-02-04T11:48:28;62674.63;;;7.47;100.00
58385;BME280;44185;47.844;8.966;2024-02-04T11:50:54;62690.56;;;7.60;100.00
58385;BME280;44185;47.844;8.966;2024-02-04T11:53:20;62716.13;;;7.84;100.00
58385;BME280;44185;47.844;8.966;2024-02-04T11:55:46;62728.50;;;7.98;99.63
58385;BME280;44185;47.844;8.966;2024-02-04T11:58:11;62754.47;;;8.20;98.54
58385;BME280;44185;47.844;8.966;2024-02-04T12:00:37;62772.22;;;8.37;96.58
58385;BME280;44185;47.844;8.966;2024-02-04T12:03:04;62755.72;;;8.23;93.78
58385;BME280;44185;47.844;8.966;2024-02-04T12:05:32;62767.97;;;8.35;95.90
58385;BME280;44185;47.844;8.966;2024-02-04T12:07:59;62769.63;;;8.37;93.58
58385;BME280;44185;47.844;8.966;2024-02-04T12:10:26;62789.63;;;8.55;94.03
58385;BME280;44185;47.844;8.966;2024-02-04T12:12:52;62782.41;;;8.49;94.24
58385;BME280;44185;47.844;8.966;2024-02-04T12:15:18;62749.59;;;8.18;93.19
58385;BME280;44185;47.844;8.966;2024-02-04T12:17:43;62758.50;;;8.26;92.65
58385;BME280;44185;47.844;8.966;2024-02-04T12:20:10;62777.06;;;8.39;93.03
58385;BME280;44185;47.844;8.966;2024-02-04T12:22:37;62776.53;;;8.38;93.15
58385;BME280;44185;47.844;8.966;2024-02-04T12:25:03;62811.00;;;8.71;92.56
58385;BME280;44185;47.844;8.966;2024-02-04T12:27:28;62788.53;;;8.54;90.80
58385;BME280;44185;47.844;8.966;2024-02-04T12:29:54;62832.84;;;8.94;91.09
58385;BME280;44185;47.844;8.966;2024-02-04T12:32:20;62824.84;;;8.91;89.46
58385;BME280;44185;47.844;8.966;2024-02-04T12:34:46;62842.69;;;9.00;90.46
58385;BME280;44185;47.844;8.966;2024-02-04T12:37:12;62823.78;;;8.83;89.55
58385;BME280;44185;47.844;8.966;2024-02-04T12:39:39;62823.41;;;8.85;91.33
58385;BME280;44185;47.844;8.966;2024-02-04T12:42:05;62795.03;;;8.58;90.01
58385;BME280;44185;47.844;8.966;2024-02-04T12:44:30;62821.56;;;8.81;90.72
58385;BME280;44185;47.844;8.966;2024-02-04T12:46:56;62839.13;;;9.02;89.88
58385;BME280;44185;47.844;8.966;2024-02-04T12:49:22;62864.72;;;9.26;87.26
58385;BME280;44185;47.844;8.966;2024-02-04T12:51:48;62856.19;;;9.16;87.66
58385;BME280;44185;47.844;8.966;2024-02-04T12:54:13;62843.19;;;9.08;89.97
58385;BME280;44185;47.844;8.966;2024-02-04T12:56:43;62873.06;;;9.34;87.45